Portada
METAR-TAF:

METAR-TAF

Aeroports :

Illes Cocos, Austràlia

latitud: 12-11S, longitud: 096-49E, altitud: 3 m

Observació

L'informe es va fer fa 40 minuts, a les 10:00 UTC
Vent 15 kt del Sud-Est
Temperatura 28°C
Humitat 66%
Pressió 1010 hPa
Visibilitat 10 km o més

METAR: YPCC 111000Z AUTO 13015KT 9999 // NCD 28/21 Q1010

Hora: 17:10 (10:40 UTC)

Pronòstic

L'informe es va fer fa 5 hores i 29 minuts, a les 05:11 UTC
Pronòstic vàlid del 11 a les 06 UTC al 12 a les 06 UTC
Vent 15 kt del Est/Sud-Est
Visibilitat 10 km o més
Núvols disperses a una alçada de 2000 ft

TAF: YPCC 110511Z 1106/1206 12015KT 9999 SCT020

Observacions i pronòstics meteorològics de més de 4000 aeroports (METAR i TAF).

Les estacions disponibles són els punts grocs i vermells al mapa.

Posi el ratolí al punt desitjat per veure el nom de l'estació.

Feu clic per veure les observacions i els pronòstics meteorològics.

Per canviar el mapa: feu clic els botons verds amb una creu de color negre per apropar; al botó verd amb un guió per allunyar la imatge; o en les fletxes verdes per a mapes adjacents.


METAR-TAF: